AFL740 UTAA-UZSS
Flight info
| Callsign | AFL740 |
|---|---|
| Flight time | 1h 1m |
| Altitude | 370 |
| Route | URABA A117 LBA B376 MANAT L141 OGNOB |
| Aircraft | A320/M-VGDW/C |
Departure
| Time | 2026-04-24 08:05 |
|---|---|
| Airport | Ashgabat International Airport (UTAA) |
Arrival
| Time | 2026-04-24 09:07 |
|---|---|
| Airport | Samarkand International Airport (UZSS) |
| Time | Latitude | Longitude | Altitude | Speed | Heading |
|---|---|---|---|---|---|
| 2026-04-24 07:47 | 37.98309 | 58.36735 | 678 ft | 0 kts | 30° |
| 2026-04-24 07:55 | 37.98302 | 58.36730 | 677 ft | 2 kts | 30° |
| 2026-04-24 07:56 | 37.98287 | 58.36719 | 677 ft | 2 kts | 30° |
| 2026-04-24 07:56 | 37.98273 | 58.36708 | 676 ft | 2 kts | 30° |
| 2026-04-24 07:56 | 37.98258 | 58.36697 | 675 ft | 2 kts | 30° |
| 2026-04-24 07:56 | 37.98243 | 58.36687 | 678 ft | 2 kts | 42° |
| 2026-04-24 07:57 | 37.98233 | 58.36671 | 674 ft | 2 kts | 56° |
| 2026-04-24 07:57 | 37.98228 | 58.36650 | 674 ft | 2 kts | 81° |
| 2026-04-24 07:57 | 37.98228 | 58.36633 | 673 ft | 0 kts | 121° |
| 2026-04-24 07:59 | 37.98227 | 58.36637 | 672 ft | 1 kts | 121° |
| 2026-04-24 08:00 | 37.98213 | 58.36668 | 678 ft | 7 kts | 117° |
| 2026-04-24 08:00 | 37.98182 | 58.36740 | 678 ft | 11 kts | 119° |
| 2026-04-24 08:00 | 37.98146 | 58.36821 | 675 ft | 10 kts | 120° |
| 2026-04-24 08:00 | 37.98115 | 58.36891 | 676 ft | 9 kts | 120° |
| 2026-04-24 08:01 | 37.98087 | 58.36952 | 675 ft | 7 kts | 120° |
| 2026-04-24 08:01 | 37.98063 | 58.37005 | 678 ft | 7 kts | 120° |
| 2026-04-24 08:01 | 37.98022 | 58.37064 | 676 ft | 12 kts | 146° |
| 2026-04-24 08:01 | 37.97928 | 58.37101 | 678 ft | 16 kts | 164° |
| 2026-04-24 08:02 | 37.97830 | 58.37138 | 678 ft | 14 kts | 160° |
| 2026-04-24 08:02 | 37.97745 | 58.37178 | 678 ft | 12 kts | 153° |
| 2026-04-24 08:02 | 37.97704 | 58.37259 | 678 ft | 10 kts | 120° |
| 2026-04-24 08:02 | 37.97670 | 58.37334 | 675 ft | 9 kts | 120° |
| 2026-04-24 08:03 | 37.97631 | 58.37420 | 678 ft | 14 kts | 120° |
| 2026-04-24 08:03 | 37.97549 | 58.37497 | 678 ft | 17 kts | 193° |
| 2026-04-24 08:03 | 37.97474 | 58.37445 | 676 ft | 7 kts | 211° |
| 2026-04-24 08:03 | 37.97434 | 58.37416 | 677 ft | 6 kts | 211° |
| 2026-04-24 08:04 | 37.97403 | 58.37392 | 678 ft | 5 kts | 211° |
| 2026-04-24 08:04 | 37.97367 | 58.37365 | 678 ft | 9 kts | 211° |
| 2026-04-24 08:04 | 37.97347 | 58.37285 | 678 ft | 12 kts | 285° |
| 2026-04-24 08:04 | 37.97415 | 58.37126 | 678 ft | 43 kts | 300° |
| 2026-04-24 08:05 | 37.97680 | 58.36525 | 676 ft | 109 kts | 299° |
| 2026-04-24 08:05 | 37.98146 | 58.35486 | 678 ft | 159 kts | 299° |
| 2026-04-24 08:05 | 37.98713 | 58.34184 | 1127 ft | 172 kts | 300° |
| 2026-04-24 08:05 | 37.99299 | 58.32815 | 1680 ft | 181 kts | 300° |
| 2026-04-24 08:06 | 37.99910 | 58.31435 | 2337 ft | 179 kts | 301° |
| 2026-04-24 08:06 | 38.00525 | 58.30072 | 3006 ft | 178 kts | 300° |
| 2026-04-24 08:06 | 38.01140 | 58.28715 | 3628 ft | 177 kts | 300° |
| 2026-04-24 08:06 | 38.01761 | 58.27336 | 4093 ft | 188 kts | 300° |
| 2026-04-24 08:07 | 38.02611 | 58.25954 | 4343 ft | 211 kts | 316° |
| 2026-04-24 08:07 | 38.03852 | 58.24825 | 4636 ft | 235 kts | 333° |
| 2026-04-24 08:07 | 38.05484 | 58.24159 | 4985 ft | 260 kts | 352° |
| 2026-04-24 08:07 | 38.07355 | 58.24254 | 5462 ft | 278 kts | 14° |
| 2026-04-24 08:08 | 38.09145 | 58.25243 | 6222 ft | 285 kts | 36° |
| 2026-04-24 08:08 | 38.10550 | 58.27021 | 7001 ft | 289 kts | 58° |
| 2026-04-24 08:08 | 38.11338 | 58.29370 | 7779 ft | 292 kts | 80° |
| 2026-04-24 08:09 | 38.11915 | 58.34588 | 9349 ft | 303 kts | 84° |
| 2026-04-24 08:09 | 38.12207 | 58.37250 | 9834 ft | 310 kts | 84° |
| 2026-04-24 08:09 | 38.12509 | 58.39968 | 10067 ft | 315 kts | 83° |
| 2026-04-24 08:09 | 38.12828 | 58.42819 | 10355 ft | 338 kts | 83° |
| 2026-04-24 08:10 | 38.13169 | 58.45880 | 10585 ft | 361 kts | 83° |
| 2026-04-24 08:10 | 38.13527 | 58.49088 | 11108 ft | 371 kts | 83° |
| 2026-04-24 08:10 | 38.13892 | 58.52354 | 11833 ft | 375 kts | 83° |
| 2026-04-24 08:10 | 38.14256 | 58.55648 | 12554 ft | 378 kts | 83° |
| 2026-04-24 08:11 | 38.14499 | 58.57852 | 13024 ft | 381 kts | 82° |
| 2026-04-24 08:11 | 38.14871 | 58.61245 | 13744 ft | 385 kts | 82° |
| 2026-04-24 08:11 | 38.15237 | 58.64582 | 14338 ft | 389 kts | 82° |
| 2026-04-24 08:11 | 38.15612 | 58.68009 | 14928 ft | 393 kts | 82° |
| 2026-04-24 08:12 | 38.15989 | 58.71466 | 15528 ft | 397 kts | 82° |
| 2026-04-24 08:12 | 38.16369 | 58.74954 | 16146 ft | 400 kts | 83° |
| 2026-04-24 08:12 | 38.16751 | 58.78477 | 16754 ft | 404 kts | 83° |
| 2026-04-24 08:12 | 38.17133 | 58.82028 | 17350 ft | 407 kts | 83° |
| 2026-04-24 08:13 | 38.17516 | 58.85608 | 17942 ft | 410 kts | 83° |
| 2026-04-24 08:13 | 38.17903 | 58.89224 | 18466 ft | 414 kts | 83° |
| 2026-04-24 08:13 | 38.18293 | 58.92861 | 18962 ft | 417 kts | 83° |
| 2026-04-24 08:13 | 38.18687 | 58.96529 | 19461 ft | 420 kts | 83° |
| 2026-04-24 08:14 | 38.19077 | 59.00176 | 19950 ft | 423 kts | 83° |
| 2026-04-24 08:14 | 38.19469 | 59.03900 | 20436 ft | 426 kts | 83° |
| 2026-04-24 08:14 | 38.19863 | 59.07663 | 20915 ft | 430 kts | 82° |
| 2026-04-24 08:14 | 38.20259 | 59.11445 | 21382 ft | 433 kts | 82° |
| 2026-04-24 08:15 | 38.20656 | 59.15251 | 21839 ft | 436 kts | 82° |
| 2026-04-24 08:15 | 38.21056 | 59.19087 | 22299 ft | 439 kts | 82° |
| 2026-04-24 08:15 | 38.21456 | 59.22945 | 22748 ft | 442 kts | 82° |
| 2026-04-24 08:15 | 38.21859 | 59.26832 | 23203 ft | 445 kts | 82° |
| 2026-04-24 08:16 | 38.22261 | 59.30692 | 23601 ft | 448 kts | 81° |
| 2026-04-24 08:16 | 38.22924 | 59.34569 | 23933 ft | 451 kts | 74° |
| 2026-04-24 08:16 | 38.23774 | 59.38423 | 24267 ft | 454 kts | 74° |
| 2026-04-24 08:16 | 38.24629 | 59.42302 | 24603 ft | 457 kts | 74° |
| 2026-04-24 08:17 | 38.25486 | 59.46212 | 24945 ft | 460 kts | 74° |
| 2026-04-24 08:17 | 38.26343 | 59.50148 | 25284 ft | 463 kts | 74° |
| 2026-04-24 08:17 | 38.27199 | 59.54110 | 25615 ft | 465 kts | 74° |
| 2026-04-24 08:17 | 38.28057 | 59.58091 | 25949 ft | 468 kts | 74° |
| 2026-04-24 08:18 | 38.28921 | 59.62101 | 26274 ft | 471 kts | 74° |
| 2026-04-24 08:18 | 38.29792 | 59.66138 | 26597 ft | 474 kts | 74° |
| 2026-04-24 08:18 | 38.30667 | 59.70203 | 26913 ft | 477 kts | 74° |
| 2026-04-24 08:18 | 38.31547 | 59.74289 | 27224 ft | 480 kts | 74° |
| 2026-04-24 08:19 | 38.32433 | 59.78399 | 27525 ft | 482 kts | 74° |
| 2026-04-24 08:19 | 38.33309 | 59.82476 | 27814 ft | 485 kts | 74° |
| 2026-04-24 08:19 | 38.34196 | 59.86628 | 28105 ft | 488 kts | 75° |
| 2026-04-24 08:19 | 38.35090 | 59.90822 | 28399 ft | 490 kts | 75° |
| 2026-04-24 08:20 | 38.35984 | 59.95028 | 28682 ft | 492 kts | 75° |
| 2026-04-24 08:20 | 38.36883 | 59.99255 | 28958 ft | 495 kts | 75° |
| 2026-04-24 08:20 | 38.37787 | 60.03514 | 29223 ft | 497 kts | 75° |
| 2026-04-24 08:20 | 38.38690 | 60.07774 | 29550 ft | 498 kts | 75° |
| 2026-04-24 08:21 | 38.39593 | 60.12039 | 29935 ft | 498 kts | 75° |
| 2026-04-24 08:21 | 38.40492 | 60.16303 | 30263 ft | 498 kts | 75° |
| 2026-04-24 08:21 | 38.41390 | 60.20565 | 30587 ft | 498 kts | 75° |
| 2026-04-24 08:21 | 38.42289 | 60.24826 | 30908 ft | 498 kts | 75° |
| 2026-04-24 08:22 | 38.43189 | 60.29091 | 31233 ft | 498 kts | 75° |
| 2026-04-24 08:22 | 38.44087 | 60.33351 | 31544 ft | 498 kts | 75° |
| 2026-04-24 08:22 | 38.44978 | 60.37617 | 31864 ft | 498 kts | 75° |
| 2026-04-24 08:22 | 38.45861 | 60.41883 | 32168 ft | 498 kts | 75° |
| 2026-04-24 08:23 | 38.46735 | 60.46100 | 32444 ft | 499 kts | 75° |
| 2026-04-24 08:23 | 38.47621 | 60.50382 | 32745 ft | 499 kts | 75° |
| 2026-04-24 08:23 | 38.48506 | 60.54665 | 33062 ft | 499 kts | 75° |
| 2026-04-24 08:23 | 38.49388 | 60.58952 | 33374 ft | 499 kts | 75° |
| 2026-04-24 08:24 | 38.50270 | 60.63239 | 33689 ft | 499 kts | 75° |
| 2026-04-24 08:24 | 38.51152 | 60.67523 | 33981 ft | 499 kts | 75° |
| 2026-04-24 08:24 | 38.52047 | 60.71867 | 34253 ft | 499 kts | 75° |
| 2026-04-24 08:24 | 38.52918 | 60.76101 | 34516 ft | 500 kts | 75° |
| 2026-04-24 08:25 | 38.53800 | 60.80390 | 34783 ft | 499 kts | 75° |
| 2026-04-24 08:25 | 38.54681 | 60.84680 | 35030 ft | 500 kts | 75° |
| 2026-04-24 08:25 | 38.55560 | 60.88979 | 35267 ft | 500 kts | 75° |
| 2026-04-24 08:25 | 38.56435 | 60.93280 | 35494 ft | 500 kts | 75° |
| 2026-04-24 08:26 | 38.57309 | 60.97584 | 35718 ft | 501 kts | 75° |
| 2026-04-24 08:26 | 38.58181 | 61.01893 | 35945 ft | 501 kts | 75° |
| 2026-04-24 08:26 | 38.59052 | 61.06204 | 36180 ft | 501 kts | 75° |
| 2026-04-24 08:26 | 38.59922 | 61.10512 | 36413 ft | 500 kts | 75° |
| 2026-04-24 08:27 | 38.60791 | 61.14822 | 36628 ft | 501 kts | 75° |
| 2026-04-24 08:27 | 38.61661 | 61.19136 | 36827 ft | 501 kts | 75° |
| 2026-04-24 08:27 | 38.62533 | 61.23455 | 36894 ft | 503 kts | 75° |
| 2026-04-24 08:28 | 38.64266 | 61.32125 | 36894 ft | 503 kts | 75° |
| 2026-04-24 08:28 | 38.65822 | 61.40853 | 36893 ft | 503 kts | 81° |
| 2026-04-24 08:29 | 38.66935 | 61.49711 | 36895 ft | 504 kts | 81° |
| 2026-04-24 08:29 | 38.68045 | 61.58509 | 36897 ft | 503 kts | 81° |
| 2026-04-24 08:30 | 38.69157 | 61.67358 | 36894 ft | 503 kts | 81° |
| 2026-04-24 08:30 | 38.70255 | 61.76196 | 36895 ft | 503 kts | 81° |
| 2026-04-24 08:31 | 38.71341 | 61.85046 | 36891 ft | 503 kts | 82° |
| 2026-04-24 08:31 | 38.72429 | 61.93894 | 36896 ft | 503 kts | 82° |
| 2026-04-24 08:32 | 38.73511 | 62.02752 | 36886 ft | 504 kts | 82° |
| 2026-04-24 08:32 | 38.74585 | 62.11626 | 36890 ft | 504 kts | 82° |
| 2026-04-24 08:33 | 38.75654 | 62.20502 | 36895 ft | 504 kts | 82° |
| 2026-04-24 08:33 | 38.76706 | 62.29346 | 36905 ft | 505 kts | 82° |
| 2026-04-24 08:34 | 38.77756 | 62.38249 | 36902 ft | 505 kts | 82° |
| 2026-04-24 08:34 | 38.78806 | 62.47158 | 36882 ft | 505 kts | 82° |
| 2026-04-24 08:35 | 38.79848 | 62.56021 | 36894 ft | 506 kts | 82° |
| 2026-04-24 08:35 | 38.80888 | 62.64943 | 36907 ft | 506 kts | 82° |
| 2026-04-24 08:36 | 38.81916 | 62.73859 | 36917 ft | 505 kts | 82° |
| 2026-04-24 08:36 | 38.82937 | 62.82781 | 36919 ft | 506 kts | 82° |
| 2026-04-24 08:37 | 38.83957 | 62.91717 | 36924 ft | 505 kts | 82° |
| 2026-04-24 08:37 | 38.84966 | 63.00643 | 36928 ft | 505 kts | 83° |
| 2026-04-24 08:38 | 38.85960 | 63.09507 | 36928 ft | 505 kts | 83° |
| 2026-04-24 08:38 | 38.86953 | 63.18428 | 36916 ft | 505 kts | 83° |
| 2026-04-24 08:39 | 38.87945 | 63.27360 | 36920 ft | 505 kts | 83° |
| 2026-04-24 08:39 | 38.88934 | 63.36277 | 36923 ft | 505 kts | 83° |
| 2026-04-24 08:40 | 38.89909 | 63.45203 | 36929 ft | 505 kts | 83° |
| 2026-04-24 08:40 | 38.90872 | 63.54123 | 36931 ft | 504 kts | 83° |
| 2026-04-24 08:41 | 38.92544 | 63.62856 | 36927 ft | 504 kts | 68° |
| 2026-04-24 08:41 | 38.95053 | 63.71218 | 36925 ft | 504 kts | 69° |
| 2026-04-24 08:42 | 38.97561 | 63.79647 | 36926 ft | 505 kts | 69° |
| 2026-04-24 08:42 | 39.00057 | 63.88094 | 36924 ft | 505 kts | 69° |
| 2026-04-24 08:43 | 39.02540 | 63.96531 | 36926 ft | 505 kts | 69° |
| 2026-04-24 08:43 | 39.05029 | 64.04984 | 36931 ft | 505 kts | 69° |
| 2026-04-24 08:44 | 39.07506 | 64.13444 | 36927 ft | 505 kts | 69° |
| 2026-04-24 08:44 | 39.10011 | 64.21841 | 36927 ft | 505 kts | 68° |
| 2026-04-24 08:45 | 39.12606 | 64.30248 | 36928 ft | 505 kts | 68° |
| 2026-04-24 08:45 | 39.15197 | 64.38668 | 36916 ft | 505 kts | 69° |
| 2026-04-24 08:46 | 39.17758 | 64.47099 | 36915 ft | 505 kts | 69° |
| 2026-04-24 08:46 | 39.20300 | 64.55548 | 36492 ft | 505 kts | 69° |
| 2026-04-24 08:46 | 39.21566 | 64.59766 | 35798 ft | 505 kts | 69° |
| 2026-04-24 08:47 | 39.22835 | 64.63996 | 35124 ft | 505 kts | 69° |
| 2026-04-24 08:47 | 39.24105 | 64.68228 | 34452 ft | 505 kts | 69° |
| 2026-04-24 08:47 | 39.25372 | 64.72449 | 33767 ft | 504 kts | 69° |
| 2026-04-24 08:47 | 39.26623 | 64.76622 | 32987 ft | 504 kts | 69° |
| 2026-04-24 08:48 | 39.27889 | 64.80851 | 32179 ft | 504 kts | 69° |
| 2026-04-24 08:48 | 39.29151 | 64.85075 | 31369 ft | 505 kts | 69° |
| 2026-04-24 08:48 | 39.30414 | 64.89305 | 30559 ft | 505 kts | 69° |
| 2026-04-24 08:48 | 39.31679 | 64.93544 | 29695 ft | 505 kts | 69° |
| 2026-04-24 08:49 | 39.32943 | 64.97779 | 28724 ft | 506 kts | 69° |
| 2026-04-24 08:49 | 39.34201 | 65.02006 | 27991 ft | 501 kts | 69° |
| 2026-04-24 08:49 | 39.35441 | 65.06190 | 27329 ft | 494 kts | 69° |
| 2026-04-24 08:49 | 39.36645 | 65.10261 | 26674 ft | 488 kts | 69° |
| 2026-04-24 08:50 | 39.37847 | 65.14331 | 26038 ft | 482 kts | 69° |
| 2026-04-24 08:50 | 39.39035 | 65.18360 | 25427 ft | 477 kts | 69° |
| 2026-04-24 08:50 | 39.40210 | 65.22341 | 24838 ft | 471 kts | 69° |
| 2026-04-24 08:50 | 39.41375 | 65.26287 | 24241 ft | 466 kts | 69° |
| 2026-04-24 08:51 | 39.42523 | 65.30188 | 23656 ft | 461 kts | 69° |
| 2026-04-24 08:51 | 39.43655 | 65.34039 | 23065 ft | 455 kts | 69° |
| 2026-04-24 08:51 | 39.44771 | 65.37850 | 22424 ft | 451 kts | 70° |
| 2026-04-24 08:51 | 39.45872 | 65.41626 | 21818 ft | 446 kts | 70° |
| 2026-04-24 08:52 | 39.46958 | 65.45358 | 21223 ft | 441 kts | 70° |
| 2026-04-24 08:52 | 39.48034 | 65.49052 | 20648 ft | 436 kts | 70° |
| 2026-04-24 08:52 | 39.49101 | 65.52706 | 20083 ft | 432 kts | 70° |
| 2026-04-24 08:52 | 39.50158 | 65.56329 | 19531 ft | 427 kts | 70° |
| 2026-04-24 08:53 | 39.51190 | 65.59871 | 19002 ft | 423 kts | 70° |
| 2026-04-24 08:53 | 39.52225 | 65.63429 | 18491 ft | 419 kts | 70° |
| 2026-04-24 08:53 | 39.53244 | 65.66942 | 17965 ft | 414 kts | 70° |
| 2026-04-24 08:53 | 39.54252 | 65.70421 | 17382 ft | 410 kts | 70° |
| 2026-04-24 08:54 | 39.55248 | 65.73864 | 16833 ft | 406 kts | 70° |
| 2026-04-24 08:54 | 39.56233 | 65.77272 | 16303 ft | 402 kts | 70° |
| 2026-04-24 08:54 | 39.57209 | 65.80662 | 15798 ft | 399 kts | 70° |
| 2026-04-24 08:54 | 39.58172 | 65.84015 | 15292 ft | 395 kts | 70° |
| 2026-04-24 08:55 | 39.59123 | 65.87339 | 14804 ft | 392 kts | 71° |
| 2026-04-24 08:55 | 39.60067 | 65.90636 | 14315 ft | 388 kts | 71° |
| 2026-04-24 08:55 | 39.60992 | 65.93858 | 13834 ft | 385 kts | 71° |
| 2026-04-24 08:55 | 39.61923 | 65.97103 | 13298 ft | 382 kts | 71° |
| 2026-04-24 08:56 | 39.62847 | 66.00324 | 12738 ft | 379 kts | 71° |
| 2026-04-24 08:56 | 39.63769 | 66.03519 | 12191 ft | 377 kts | 71° |
| 2026-04-24 08:56 | 39.64685 | 66.06691 | 11664 ft | 374 kts | 71° |
| 2026-04-24 08:56 | 39.65578 | 66.09790 | 11507 ft | 359 kts | 71° |
| 2026-04-24 08:57 | 39.66437 | 66.12774 | 11362 ft | 346 kts | 71° |
| 2026-04-24 08:57 | 39.67266 | 66.15659 | 11124 ft | 337 kts | 71° |
| 2026-04-24 08:57 | 39.68076 | 66.18482 | 10892 ft | 330 kts | 71° |
| 2026-04-24 08:57 | 39.68865 | 66.21248 | 10657 ft | 323 kts | 71° |
| 2026-04-24 08:58 | 39.69637 | 66.23953 | 10410 ft | 316 kts | 71° |
| 2026-04-24 08:58 | 39.70393 | 66.26610 | 10168 ft | 310 kts | 72° |
| 2026-04-24 08:58 | 39.71125 | 66.29185 | 9938 ft | 306 kts | 72° |
| 2026-04-24 08:58 | 39.71860 | 66.31771 | 9681 ft | 304 kts | 72° |
| 2026-04-24 08:59 | 39.72590 | 66.34342 | 9419 ft | 303 kts | 72° |
| 2026-04-24 08:59 | 39.73320 | 66.36908 | 9169 ft | 302 kts | 72° |
| 2026-04-24 08:59 | 39.73974 | 66.39491 | 8911 ft | 299 kts | 80° |
| 2026-04-24 08:59 | 39.74197 | 66.42150 | 8661 ft | 294 kts | 94° |
| 2026-04-24 09:00 | 39.74037 | 66.44776 | 8411 ft | 291 kts | 99° |
| 2026-04-24 09:00 | 39.73848 | 66.47395 | 8164 ft | 291 kts | 98° |
| 2026-04-24 09:00 | 39.73667 | 66.49999 | 7910 ft | 288 kts | 98° |
| 2026-04-24 09:00 | 39.73490 | 66.52586 | 7617 ft | 288 kts | 98° |
| 2026-04-24 09:01 | 39.73310 | 66.55183 | 7242 ft | 286 kts | 98° |
| 2026-04-24 09:01 | 39.73193 | 66.56880 | 7163 ft | 284 kts | 98° |
| 2026-04-24 09:01 | 39.73014 | 66.59435 | 7037 ft | 284 kts | 97° |
| 2026-04-24 09:01 | 39.72836 | 66.61970 | 6914 ft | 277 kts | 97° |
| 2026-04-24 09:02 | 39.72611 | 66.65179 | 6747 ft | 263 kts | 97° |
| 2026-04-24 09:02 | 39.72458 | 66.67559 | 6354 ft | 263 kts | 96° |
| 2026-04-24 09:02 | 39.72306 | 66.69922 | 6038 ft | 260 kts | 96° |
| 2026-04-24 09:02 | 39.72194 | 66.71477 | 5814 ft | 252 kts | 97° |
| 2026-04-24 09:03 | 39.72029 | 66.73667 | 5501 ft | 243 kts | 96° |
| 2026-04-24 09:03 | 39.71865 | 66.75842 | 5190 ft | 243 kts | 96° |
| 2026-04-24 09:03 | 39.71702 | 66.78009 | 4875 ft | 236 kts | 96° |
| 2026-04-24 09:03 | 39.71546 | 66.80082 | 4576 ft | 225 kts | 95° |
| 2026-04-24 09:04 | 39.71397 | 66.82064 | 4295 ft | 215 kts | 96° |
| 2026-04-24 09:04 | 39.71255 | 66.83942 | 4041 ft | 201 kts | 95° |
| 2026-04-24 09:04 | 39.71122 | 66.85698 | 3773 ft | 190 kts | 95° |
| 2026-04-24 09:04 | 39.70998 | 66.87340 | 3535 ft | 176 kts | 95° |
| 2026-04-24 09:05 | 39.70882 | 66.88867 | 3319 ft | 163 kts | 96° |
| 2026-04-24 09:05 | 39.70774 | 66.90271 | 3116 ft | 151 kts | 95° |
| 2026-04-24 09:05 | 39.70671 | 66.91609 | 2941 ft | 147 kts | 94° |
| 2026-04-24 09:05 | 39.70488 | 66.92909 | 2736 ft | 145 kts | 99° |
| 2026-04-24 09:06 | 39.70376 | 66.94203 | 2515 ft | 142 kts | 89° |
| 2026-04-24 09:06 | 39.70277 | 66.95498 | 2363 ft | 146 kts | 95° |
| 2026-04-24 09:06 | 39.70180 | 66.96799 | 2210 ft | 144 kts | 94° |
| 2026-04-24 09:06 | 39.70090 | 66.97982 | 2204 ft | 114 kts | 96° |
| 2026-04-24 09:07 | 39.70043 | 66.98549 | 2212 ft | 36 kts | 96° |
| 2026-04-24 09:07 | 39.70020 | 66.98857 | 2217 ft | 33 kts | 95° |
| 2026-04-24 09:07 | 39.69945 | 66.99134 | 2221 ft | 6 kts | 182° |
| 2026-04-24 09:08 | 39.69904 | 66.99128 | 2220 ft | 6 kts | 186° |
| 2026-04-24 09:08 | 39.69860 | 66.99122 | 2218 ft | 7 kts | 184° |
| 2026-04-24 09:08 | 39.69797 | 66.99142 | 2219 ft | 11 kts | 131° |
| 2026-04-24 09:08 | 39.69779 | 66.99221 | 2217 ft | 7 kts | 116° |
| 2026-04-24 09:09 | 39.69745 | 66.99233 | 2218 ft | 4 kts | 192° |
| 2026-04-24 09:09 | 39.69743 | 66.99232 | 2219 ft | 0 kts | 193° |